sensor_id;sensor_type;location;lat;lon;timestamp;P1;durP1;ratioP1;P2;durP2;ratioP2
54121;SDS011;40029;58.708;50.190;2023-12-22T00:02:25;12.73;;;5.78;;
54121;SDS011;40029;58.708;50.190;2023-12-22T00:05:17;10.98;;;4.38;;
54121;SDS011;40029;58.708;50.190;2023-12-22T00:07:48;14.05;;;5.45;;
54121;SDS011;40029;58.708;50.190;2023-12-22T00:10:20;13.13;;;5.20;;
54121;SDS011;40029;58.708;50.190;2023-12-22T00:12:51;11.88;;;4.93;;
54121;SDS011;40029;58.708;50.190;2023-12-22T00:15:41;13.00;;;5.32;;
54121;SDS011;40029;58.708;50.190;2023-12-22T00:18:15;11.40;;;5.15;;
54121;SDS011;40029;58.708;50.190;2023-12-22T00:20:46;14.38;;;5.55;;
54121;SDS011;40029;58.708;50.190;2023-12-22T00:23:17;9.88;;;4.20;;
54121;SDS011;40029;58.708;50.190;2023-12-22T00:26:07;11.70;;;5.30;;
54121;SDS011;40029;58.708;50.190;2023-12-22T00:28:57;13.48;;;5.70;;
54121;SDS011;40029;58.708;50.190;2023-12-22T00:31:28;14.13;;;5.53;;
54121;SDS011;40029;58.708;50.190;2023-12-22T00:33:59;13.13;;;5.80;;
54121;SDS011;40029;58.708;50.190;2023-12-22T00:36:31;13.07;;;5.50;;
54121;SDS011;40029;58.708;50.190;2023-12-22T00:39:03;15.30;;;5.80;;
54121;SDS011;40029;58.708;50.190;2023-12-22T00:41:34;13.95;;;5.53;;
54121;SDS011;40029;58.708;50.190;2023-12-22T00:44:05;12.55;;;5.38;;
54121;SDS011;40029;58.708;50.190;2023-12-22T00:46:36;11.95;;;5.75;;
54121;SDS011;40029;58.708;50.190;2023-12-22T00:49:08;13.60;;;5.85;;
54121;SDS011;40029;58.708;50.190;2023-12-22T00:51:57;14.98;;;6.00;;
54121;SDS011;40029;58.708;50.190;2023-12-22T00:54:28;13.52;;;6.53;;
54121;SDS011;40029;58.708;50.190;2023-12-22T00:57:02;12.17;;;5.80;;
54121;SDS011;40029;58.708;50.190;2023-12-22T00:59:33;15.57;;;5.90;;
54121;SDS011;40029;58.708;50.190;2023-12-22T01:02:04;13.00;;;5.68;;
54121;SDS011;40029;58.708;50.190;2023-12-22T01:04:54;12.38;;;5.68;;
54121;SDS011;40029;58.708;50.190;2023-12-22T01:07:25;13.75;;;6.10;;
54121;SDS011;40029;58.708;50.190;2023-12-22T01:09:57;15.65;;;6.32;;
54121;SDS011;40029;58.708;50.190;2023-12-22T01:12:35;11.35;;;5.78;;
54121;SDS011;40029;58.708;50.190;2023-12-22T01:15:07;10.32;;;5.30;;
54121;SDS011;40029;58.708;50.190;2023-12-22T01:17:39;14.93;;;6.25;;
54121;SDS011;40029;58.708;50.190;2023-12-22T01:20:10;190.68;;;45.92;;
54121;SDS011;40029;58.708;50.190;2023-12-22T01:22:41;230.00;;;54.15;;
54121;SDS011;40029;58.708;50.190;2023-12-22T01:25:13;103.78;;;24.98;;
54121;SDS011;40029;58.708;50.190;2023-12-22T01:27:44;37.72;;;9.95;;
54121;SDS011;40029;58.708;50.190;2023-12-22T01:30:16;22.45;;;7.22;;
54121;SDS011;40029;58.708;50.190;2023-12-22T01:32:48;13.02;;;5.90;;
54121;SDS011;40029;58.708;50.190;2023-12-22T01:35:19;14.05;;;5.68;;
54121;SDS011;40029;58.708;50.190;2023-12-22T01:37:50;13.48;;;5.40;;
54121;SDS011;40029;58.708;50.190;2023-12-22T01:40:21;9.68;;;5.30;;
54121;SDS011;40029;58.708;50.190;2023-12-22T01:42:53;11.20;;;5.40;;
54121;SDS011;40029;58.708;50.190;2023-12-22T01:45:24;12.38;;;5.05;;
54121;SDS011;40029;58.708;50.190;2023-12-22T01:47:55;9.25;;;5.03;;
54121;SDS011;40029;58.708;50.190;2023-12-22T01:50:26;8.25;;;4.32;;
54121;SDS011;40029;58.708;50.190;2023-12-22T01:52:58;8.60;;;4.30;;
54121;SDS011;40029;58.708;50.190;2023-12-22T01:55:48;9.40;;;4.53;;
54121;SDS011;40029;58.708;50.190;2023-12-22T01:58:22;8.35;;;4.20;;
54121;SDS011;40029;58.708;50.190;2023-12-22T02:00:54;6.83;;;3.90;;
54121;SDS011;40029;58.708;50.190;2023-12-22T02:03:27;5.50;;;2.83;;
54121;SDS011;40029;58.708;50.190;2023-12-22T02:05:58;6.32;;;3.42;;
54121;SDS011;40029;58.708;50.190;2023-12-22T02:08:31;5.50;;;3.30;;
54121;SDS011;40029;58.708;50.190;2023-12-22T02:11:04;6.37;;;3.77;;
54121;SDS011;40029;58.708;50.190;2023-12-22T02:13:35;3.90;;;2.40;;
54121;SDS011;40029;58.708;50.190;2023-12-22T02:16:32;5.07;;;2.72;;
54121;SDS011;40029;58.708;50.190;2023-12-22T02:19:34;5.72;;;2.15;;
54121;SDS011;40029;58.708;50.190;2023-12-22T02:22:14;2.85;;;2.03;;
54121;SDS011;40029;58.708;50.190;2023-12-22T02:24:46;4.55;;;1.95;;
54121;SDS011;40029;58.708;50.190;2023-12-22T02:27:40;3.58;;;1.83;;
54121;SDS011;40029;58.708;50.190;2023-12-22T02:33:16;3.03;;;1.98;;
54121;SDS011;40029;58.708;50.190;2023-12-22T02:35:49;4.15;;;1.73;;
54121;SDS011;40029;58.708;50.190;2023-12-22T02:38:22;4.82;;;1.88;;
54121;SDS011;40029;58.708;50.190;2023-12-22T02:40:55;3.38;;;1.48;;
54121;SDS011;40029;58.708;50.190;2023-12-22T02:43:27;5.25;;;2.47;;
54121;SDS011;40029;58.708;50.190;2023-12-22T02:45:59;5.70;;;2.38;;
54121;SDS011;40029;58.708;50.190;2023-12-22T02:48:48;5.25;;;2.22;;
54121;SDS011;40029;58.708;50.190;2023-12-22T02:51:19;7.38;;;2.58;;
54121;SDS011;40029;58.708;50.190;2023-12-22T02:53:51;8.05;;;2.95;;
54121;SDS011;40029;58.708;50.190;2023-12-22T02:56:22;4.72;;;2.20;;
54121;SDS011;40029;58.708;50.190;2023-12-22T02:58:53;6.90;;;2.95;;
54121;SDS011;40029;58.708;50.190;2023-12-22T03:01:24;4.07;;;1.73;;
54121;SDS011;40029;58.708;50.190;2023-12-22T03:03:55;3.97;;;1.73;;
54121;SDS011;40029;58.708;50.190;2023-12-22T03:06:26;3.95;;;2.15;;
54121;SDS011;40029;58.708;50.190;2023-12-22T03:08:57;6.38;;;2.33;;
54121;SDS011;40029;58.708;50.190;2023-12-22T03:11:28;4.45;;;1.75;;
54121;SDS011;40029;58.708;50.190;2023-12-22T03:13:59;5.10;;;2.10;;
54121;SDS011;40029;58.708;50.190;2023-12-22T03:16:49;5.88;;;1.70;;
54121;SDS011;40029;58.708;50.190;2023-12-22T03:19:20;7.05;;;2.45;;
54121;SDS011;40029;58.708;50.190;2023-12-22T03:22:11;6.72;;;2.30;;
54121;SDS011;40029;58.708;50.190;2023-12-22T03:24:43;6.47;;;2.45;;
54121;SDS011;40029;58.708;50.190;2023-12-22T03:27:15;5.10;;;2.30;;
54121;SDS011;40029;58.708;50.190;2023-12-22T03:29:49;5.53;;;2.00;;
54121;SDS011;40029;58.708;50.190;2023-12-22T03:32:20;4.28;;;1.70;;
54121;SDS011;40029;58.708;50.190;2023-12-22T03:34:51;6.90;;;2.17;;
54121;SDS011;40029;58.708;50.190;2023-12-22T03:37:22;4.00;;;1.13;;
54121;SDS011;40029;58.708;50.190;2023-12-22T03:39:53;3.25;;;1.20;;
54121;SDS011;40029;58.708;50.190;2023-12-22T03:42:24;2.75;;;1.45;;
54121;SDS011;40029;58.708;50.190;2023-12-22T03:44:55;2.75;;;1.50;;
54121;SDS011;40029;58.708;50.190;2023-12-22T03:47:27;3.03;;;1.23;;
54121;SDS011;40029;58.708;50.190;2023-12-22T03:49:58;2.85;;;1.30;;
54121;SDS011;40029;58.708;50.190;2023-12-22T03:52:29;3.17;;;1.10;;
54121;SDS011;40029;58.708;50.190;2023-12-22T03:55:00;1.83;;;1.10;;
54121;SDS011;40029;58.708;50.190;2023-12-22T03:57:32;3.40;;;1.45;;
54121;SDS011;40029;58.708;50.190;2023-12-22T04:00:03;2.28;;;1.70;;
54121;SDS011;40029;58.708;50.190;2023-12-22T04:02:36;2.05;;;0.70;;
54121;SDS011;40029;58.708;50.190;2023-12-22T04:05:07;2.83;;;1.00;;
54121;SDS011;40029;58.708;50.190;2023-12-22T04:07:57;2.20;;;1.05;;
54121;SDS011;40029;58.708;50.190;2023-12-22T04:10:28;1.15;;;0.75;;
54121;SDS011;40029;58.708;50.190;2023-12-22T04:12:59;1.17;;;0.70;;
54121;SDS011;40029;58.708;50.190;2023-12-22T04:15:31;2.28;;;1.00;;
54121;SDS011;40029;58.708;50.190;2023-12-22T04:18:02;3.85;;;1.20;;
54121;SDS011;40029;58.708;50.190;2023-12-22T04:20:33;1.45;;;0.80;;
54121;SDS011;40029;58.708;50.190;2023-12-22T04:23:05;2.10;;;1.13;;
54121;SDS011;40029;58.708;50.190;2023-12-22T04:25:36;2.97;;;1.20;;
54121;SDS011;40029;58.708;50.190;2023-12-22T04:28:07;4.28;;;1.00;;
54121;SDS011;40029;58.708;50.190;2023-12-22T04:30:57;3.53;;;1.30;;
54121;SDS011;40029;58.708;50.190;2023-12-22T04:33:28;2.67;;;1.13;;
54121;SDS011;40029;58.708;50.190;2023-12-22T04:36:00;2.53;;;1.00;;
54121;SDS011;40029;58.708;50.190;2023-12-22T04:38:31;3.78;;;1.20;;
54121;SDS011;40029;58.708;50.190;2023-12-22T04:41:02;1.52;;;0.85;;
54121;SDS011;40029;58.708;50.190;2023-12-22T04:43:33;4.93;;;1.10;;
54121;SDS011;40029;58.708;50.190;2023-12-22T04:46:05;2.20;;;1.15;;
54121;SDS011;40029;58.708;50.190;2023-12-22T04:48:36;1.23;;;0.95;;
54121;SDS011;40029;58.708;50.190;2023-12-22T04:51:07;2.38;;;1.60;;
54121;SDS011;40029;58.708;50.190;2023-12-22T04:53:38;2.25;;;0.95;;
54121;SDS011;40029;58.708;50.190;2023-12-22T04:56:09;2.50;;;1.20;;
54121;SDS011;40029;58.708;50.190;2023-12-22T04:58:41;2.10;;;1.10;;
54121;SDS011;40029;58.708;50.190;2023-12-22T05:01:31;2.45;;;1.38;;
54121;SDS011;40029;58.708;50.190;2023-12-22T05:04:02;1.70;;;1.10;;
54121;SDS011;40029;58.708;50.190;2023-12-22T05:06:34;1.90;;;1.15;;
54121;SDS011;40029;58.708;50.190;2023-12-22T05:09:05;1.40;;;1.10;;
54121;SDS011;40029;58.708;50.190;2023-12-22T05:11:36;1.42;;;1.02;;
54121;SDS011;40029;58.708;50.190;2023-12-22T05:14:07;2.55;;;1.35;;
54121;SDS011;40029;58.708;50.190;2023-12-22T05:16:40;9.15;;;3.80;;
54121;SDS011;40029;58.708;50.190;2023-12-22T05:19:11;6.85;;;2.63;;
54121;SDS011;40029;58.708;50.190;2023-12-22T05:21:42;10.00;;;4.63;;
54121;SDS011;40029;58.708;50.190;2023-12-22T05:24:14;7.60;;;3.40;;
54121;SDS011;40029;58.708;50.190;2023-12-22T05:26:45;5.00;;;3.03;;
54121;SDS011;40029;58.708;50.190;2023-12-22T05:29:16;4.15;;;2.22;;
54121;SDS011;40029;58.708;50.190;2023-12-22T05:31:47;16.67;;;7.15;;
54121;SDS011;40029;58.708;50.190;2023-12-22T05:34:18;23.15;;;8.60;;
54121;SDS011;40029;58.708;50.190;2023-12-22T05:36:49;11.90;;;4.90;;
54121;SDS011;40029;58.708;50.190;2023-12-22T05:39:39;12.10;;;4.00;;
54121;SDS011;40029;58.708;50.190;2023-12-22T05:42:10;5.93;;;2.42;;
54121;SDS011;40029;58.708;50.190;2023-12-22T05:44:42;8.70;;;3.30;;
54121;SDS011;40029;58.708;50.190;2023-12-22T05:47:13;5.05;;;2.50;;
54121;SDS011;40029;58.708;50.190;2023-12-22T05:49:44;9.40;;;2.70;;
54121;SDS011;40029;58.708;50.190;2023-12-22T05:52:15;8.63;;;3.83;;
54121;SDS011;40029;58.708;50.190;2023-12-22T05:54:47;9.95;;;4.13;;
54121;SDS011;40029;58.708;50.190;2023-12-22T05:57:18;8.43;;;3.22;;
54121;SDS011;40029;58.708;50.190;2023-12-22T05:59:49;8.00;;;3.95;;
54121;SDS011;40029;58.708;50.190;2023-12-22T06:02:20;12.10;;;4.78;;
54121;SDS011;40029;58.708;50.190;2023-12-22T06:04:51;5.43;;;2.72;;
54121;SDS011;40029;58.708;50.190;2023-12-22T06:07:22;66.10;;;21.10;;
54121;SDS011;40029;58.708;50.190;2023-12-22T06:09:54;37.72;;;14.30;;
54121;SDS011;40029;58.708;50.190;2023-12-22T06:12:26;35.35;;;13.85;;
54121;SDS011;40029;58.708;50.190;2023-12-22T06:14:57;17.05;;;7.40;;
54121;SDS011;40029;58.708;50.190;2023-12-22T06:17:28;19.45;;;8.55;;
54121;SDS011;40029;58.708;50.190;2023-12-22T06:19:59;11.27;;;5.00;;
54121;SDS011;40029;58.708;50.190;2023-12-22T06:22:30;13.38;;;6.93;;
54121;SDS011;40029;58.708;50.190;2023-12-22T06:25:03;5.10;;;2.97;;
54121;SDS011;40029;58.708;50.190;2023-12-22T06:27:38;17.05;;;6.55;;
54121;SDS011;40029;58.708;50.190;2023-12-22T06:30:09;10.38;;;4.18;;
54121;SDS011;40029;58.708;50.190;2023-12-22T06:32:40;18.20;;;7.18;;
54121;SDS011;40029;58.708;50.190;2023-12-22T06:35:12;18.27;;;6.85;;
54121;SDS011;40029;58.708;50.190;2023-12-22T06:37:43;13.38;;;5.38;;
54121;SDS011;40029;58.708;50.190;2023-12-22T06:40:14;10.98;;;4.63;;
54121;SDS011;40029;58.708;50.190;2023-12-22T06:42:45;17.85;;;7.20;;
54121;SDS011;40029;58.708;50.190;2023-12-22T06:45:17;19.45;;;8.52;;
54121;SDS011;40029;58.708;50.190;2023-12-22T06:47:48;11.55;;;4.65;;
54121;SDS011;40029;58.708;50.190;2023-12-22T06:50:19;12.55;;;5.82;;
54121;SDS011;40029;58.708;50.190;2023-12-22T06:52:50;14.70;;;6.03;;
54121;SDS011;40029;58.708;50.190;2023-12-22T06:55:40;8.35;;;3.67;;
54121;SDS011;40029;58.708;50.190;2023-12-22T06:58:12;5.75;;;3.20;;
54121;SDS011;40029;58.708;50.190;2023-12-22T07:00:43;5.28;;;3.05;;
54121;SDS011;40029;58.708;50.190;2023-12-22T07:03:14;9.73;;;3.70;;
54121;SDS011;40029;58.708;50.190;2023-12-22T07:05:46;10.13;;;4.20;;
54121;SDS011;40029;58.708;50.190;2023-12-22T07:08:18;7.15;;;3.67;;
54121;SDS011;40029;58.708;50.190;2023-12-22T07:10:49;4.10;;;2.30;;
54121;SDS011;40029;58.708;50.190;2023-12-22T07:13:20;3.90;;;1.98;;
54121;SDS011;40029;58.708;50.190;2023-12-22T07:15:51;4.28;;;2.45;;
54121;SDS011;40029;58.708;50.190;2023-12-22T07:18:22;5.30;;;3.22;;
54121;SDS011;40029;58.708;50.190;2023-12-22T07:20:53;2.92;;;1.98;;
54121;SDS011;40029;58.708;50.190;2023-12-22T07:23:25;1.70;;;1.38;;
54121;SDS011;40029;58.708;50.190;2023-12-22T07:25:56;5.88;;;3.13;;
54121;SDS011;40029;58.708;50.190;2023-12-22T07:28:27;4.50;;;3.13;;
54121;SDS011;40029;58.708;50.190;2023-12-22T07:30:58;3.20;;;1.92;;
54121;SDS011;40029;58.708;50.190;2023-12-22T07:33:48;3.28;;;1.50;;
54121;SDS011;40029;58.708;50.190;2023-12-22T07:36:19;5.50;;;2.88;;
54121;SDS011;40029;58.708;50.190;2023-12-22T07:38:52;10.50;;;4.53;;
54121;SDS011;40029;58.708;50.190;2023-12-22T07:41:41;5.05;;;3.08;;
54121;SDS011;40029;58.708;50.190;2023-12-22T07:44:13;1.88;;;1.33;;
54121;SDS011;40029;58.708;50.190;2023-12-22T07:47:02;2.42;;;1.40;;
54121;SDS011;40029;58.708;50.190;2023-12-22T07:49:34;1.52;;;1.10;;
54121;SDS011;40029;58.708;50.190;2023-12-22T07:52:05;1.73;;;1.10;;
54121;SDS011;40029;58.708;50.190;2023-12-22T07:54:36;2.25;;;1.35;;
54121;SDS011;40029;58.708;50.190;2023-12-22T07:57:08;3.83;;;1.98;;
54121;SDS011;40029;58.708;50.190;2023-12-22T07:59:57;6.35;;;3.30;;
54121;SDS011;40029;58.708;50.190;2023-12-22T08:02:29;3.40;;;1.73;;
54121;SDS011;40029;58.708;50.190;2023-12-22T08:05:00;2.22;;;1.50;;
54121;SDS011;40029;58.708;50.190;2023-12-22T08:07:31;4.57;;;2.42;;
54121;SDS011;40029;58.708;50.190;2023-12-22T08:10:03;6.45;;;2.72;;
54121;SDS011;40029;58.708;50.190;2023-12-22T08:12:35;3.00;;;1.80;;
54121;SDS011;40029;58.708;50.190;2023-12-22T08:15:07;5.78;;;2.33;;
54121;SDS011;40029;58.708;50.190;2023-12-22T08:17:49;4.55;;;2.00;;
54121;SDS011;40029;58.708;50.190;2023-12-22T08:20:21;5.13;;;2.25;;
54121;SDS011;40029;58.708;50.190;2023-12-22T08:22:52;3.95;;;1.75;;
54121;SDS011;40029;58.708;50.190;2023-12-22T08:25:23;2.03;;;1.33;;
54121;SDS011;40029;58.708;50.190;2023-12-22T08:27:54;1.55;;;0.93;;
54121;SDS011;40029;58.708;50.190;2023-12-22T08:30:26;3.47;;;1.75;;
54121;SDS011;40029;58.708;50.190;2023-12-22T08:32:57;2.22;;;1.55;;
54121;SDS011;40029;58.708;50.190;2023-12-22T08:35:46;3.40;;;2.15;;
54121;SDS011;40029;58.708;50.190;2023-12-22T08:38:17;5.20;;;2.40;;
54121;SDS011;40029;58.708;50.190;2023-12-22T08:40:48;2.88;;;1.80;;
54121;SDS011;40029;58.708;50.190;2023-12-22T08:43:20;2.55;;;1.40;;
54121;SDS011;40029;58.708;50.190;2023-12-22T08:45:51;2.13;;;1.13;;
54121;SDS011;40029;58.708;50.190;2023-12-22T08:48:22;1.88;;;1.30;;
54121;SDS011;40029;58.708;50.190;2023-12-22T08:50:53;2.15;;;1.20;;
54121;SDS011;40029;58.708;50.190;2023-12-22T08:53:24;2.10;;;1.50;;
54121;SDS011;40029;58.708;50.190;2023-12-22T08:56:14;5.03;;;1.90;;
54121;SDS011;40029;58.708;50.190;2023-12-22T08:58:47;9.75;;;3.85;;
54121;SDS011;40029;58.708;50.190;2023-12-22T09:01:20;9.43;;;5.13;;
54121;SDS011;40029;58.708;50.190;2023-12-22T09:04:11;10.73;;;4.28;;
54121;SDS011;40029;58.708;50.190;2023-12-22T09:06:42;7.63;;;3.20;;
54121;SDS011;40029;58.708;50.190;2023-12-22T09:09:14;5.35;;;2.88;;
54121;SDS011;40029;58.708;50.190;2023-12-22T09:12:03;4.85;;;2.25;;
54121;SDS011;40029;58.708;50.190;2023-12-22T09:14:35;7.05;;;2.35;;
54121;SDS011;40029;58.708;50.190;2023-12-22T09:17:27;7.68;;;3.42;;
54121;SDS011;40029;58.708;50.190;2023-12-22T09:20:17;7.32;;;3.25;;
54121;SDS011;40029;58.708;50.190;2023-12-22T09:22:48;5.35;;;2.33;;
54121;SDS011;40029;58.708;50.190;2023-12-22T09:25:20;3.85;;;3.05;;
54121;SDS011;40029;58.708;50.190;2023-12-22T09:27:51;10.23;;;4.68;;
54121;SDS011;40029;58.708;50.190;2023-12-22T09:30:23;9.52;;;4.80;;
54121;SDS011;40029;58.708;50.190;2023-12-22T09:32:54;3.67;;;2.40;;
54121;SDS011;40029;58.708;50.190;2023-12-22T09:35:25;10.85;;;5.32;;
54121;SDS011;40029;58.708;50.190;2023-12-22T09:37:57;4.57;;;1.63;;
54121;SDS011;40029;58.708;50.190;2023-12-22T09:40:29;3.63;;;1.48;;
54121;SDS011;40029;58.708;50.190;2023-12-22T09:43:01;1.73;;;0.98;;
54121;SDS011;40029;58.708;50.190;2023-12-22T09:45:33;2.08;;;1.00;;
54121;SDS011;40029;58.708;50.190;2023-12-22T09:48:05;1.95;;;1.20;;
54121;SDS011;40029;58.708;50.190;2023-12-22T09:50:37;2.33;;;1.40;;
54121;SDS011;40029;58.708;50.190;2023-12-22T09:53:13;3.60;;;1.73;;
54121;SDS011;40029;58.708;50.190;2023-12-22T09:55:45;4.15;;;2.45;;
54121;SDS011;40029;58.708;50.190;2023-12-22T09:58:17;1.73;;;1.17;;
54121;SDS011;40029;58.708;50.190;2023-12-22T10:00:49;3.58;;;2.25;;
54121;SDS011;40029;58.708;50.190;2023-12-22T10:03:23;1.20;;;0.75;;
54121;SDS011;40029;58.708;50.190;2023-12-22T10:05:56;2.45;;;1.02;;
54121;SDS011;40029;58.708;50.190;2023-12-22T10:08:27;1.45;;;0.98;;
54121;SDS011;40029;58.708;50.190;2023-12-22T10:10:59;2.13;;;0.90;;
54121;SDS011;40029;58.708;50.190;2023-12-22T10:13:31;1.38;;;0.70;;
54121;SDS011;40029;58.708;50.190;2023-12-22T10:16:06;3.42;;;1.33;;
54121;SDS011;40029;58.708;50.190;2023-12-22T10:18:37;1.25;;;0.80;;
54121;SDS011;40029;58.708;50.190;2023-12-22T10:21:09;1.83;;;1.10;;
54121;SDS011;40029;58.708;50.190;2023-12-22T10:23:58;1.90;;;0.98;;
54121;SDS011;40029;58.708;50.190;2023-12-22T10:26:29;3.08;;;1.60;;
54121;SDS011;40029;58.708;50.190;2023-12-22T10:29:02;1.73;;;1.23;;
54121;SDS011;40029;58.708;50.190;2023-12-22T10:31:40;1.20;;;0.80;;
54121;SDS011;40029;58.708;50.190;2023-12-22T10:34:11;1.33;;;0.90;;
54121;SDS011;40029;58.708;50.190;2023-12-22T10:36:42;1.55;;;0.90;;
54121;SDS011;40029;58.708;50.190;2023-12-22T10:39:14;0.98;;;0.68;;
54121;SDS011;40029;58.708;50.190;2023-12-22T10:41:46;1.35;;;0.90;;
54121;SDS011;40029;58.708;50.190;2023-12-22T10:44:19;1.75;;;0.95;;
54121;SDS011;40029;58.708;50.190;2023-12-22T10:46:51;1.40;;;0.80;;
54121;SDS011;40029;58.708;50.190;2023-12-22T10:49:24;2.20;;;1.40;;
54121;SDS011;40029;58.708;50.190;2023-12-22T10:51:56;3.83;;;2.63;;
54121;SDS011;40029;58.708;50.190;2023-12-22T10:54:27;2.50;;;1.33;;
54121;SDS011;40029;58.708;50.190;2023-12-22T10:57:19;1.55;;;0.93;;
54121;SDS011;40029;58.708;50.190;2023-12-22T10:59:50;1.20;;;0.50;;
54121;SDS011;40029;58.708;50.190;2023-12-22T11:02:22;2.35;;;0.90;;
54121;SDS011;40029;58.708;50.190;2023-12-22T11:05:00;1.23;;;0.70;;
54121;SDS011;40029;58.708;50.190;2023-12-22T11:07:35;1.42;;;0.88;;
54121;SDS011;40029;58.708;50.190;2023-12-22T11:10:10;1.85;;;1.38;;
54121;SDS011;40029;58.708;50.190;2023-12-22T11:12:43;1.30;;;0.93;;
54121;SDS011;40029;58.708;50.190;2023-12-22T11:15:15;1.77;;;1.00;;
54121;SDS011;40029;58.708;50.190;2023-12-22T11:17:48;1.80;;;1.10;;
54121;SDS011;40029;58.708;50.190;2023-12-22T11:20:22;2.45;;;0.93;;
54121;SDS011;40029;58.708;50.190;2023-12-22T11:22:54;1.75;;;1.20;;
54121;SDS011;40029;58.708;50.190;2023-12-22T11:25:28;2.37;;;1.13;;
54121;SDS011;40029;58.708;50.190;2023-12-22T11:28:01;1.90;;;1.27;;
54121;SDS011;40029;58.708;50.190;2023-12-22T11:30:34;2.72;;;1.50;;
54121;SDS011;40029;58.708;50.190;2023-12-22T11:33:07;1.27;;;0.88;;
54121;SDS011;40029;58.708;50.190;2023-12-22T11:35:41;4.25;;;2.20;;
54121;SDS011;40029;58.708;50.190;2023-12-22T11:38:31;2.15;;;1.77;;
54121;SDS011;40029;58.708;50.190;2023-12-22T11:41:02;5.28;;;2.55;;
54121;SDS011;40029;58.708;50.190;2023-12-22T11:43:36;5.57;;;2.00;;
54121;SDS011;40029;58.708;50.190;2023-12-22T11:46:09;3.75;;;2.15;;
54121;SDS011;40029;58.708;50.190;2023-12-22T11:48:46;2.80;;;1.73;;
54121;SDS011;40029;58.708;50.190;2023-12-22T11:51:19;2.30;;;1.20;;
54121;SDS011;40029;58.708;50.190;2023-12-22T11:53:51;3.83;;;2.40;;
54121;SDS011;40029;58.708;50.190;2023-12-22T11:56:23;2.45;;;1.75;;
54121;SDS011;40029;58.708;50.190;2023-12-22T11:58:55;1.20;;;1.02;;
54121;SDS011;40029;58.708;50.190;2023-12-22T12:01:29;2.92;;;1.27;;
54121;SDS011;40029;58.708;50.190;2023-12-22T12:04:02;4.75;;;3.05;;
54121;SDS011;40029;58.708;50.190;2023-12-22T12:06:35;5.38;;;2.63;;
54121;SDS011;40029;58.708;50.190;2023-12-22T12:09:07;7.50;;;3.55;;
54121;SDS011;40029;58.708;50.190;2023-12-22T12:14:29;2.38;;;1.48;;
54121;SDS011;40029;58.708;50.190;2023-12-22T12:17:06;3.33;;;2.30;;
54121;SDS011;40029;58.708;50.190;2023-12-22T12:19:46;3.25;;;1.77;;
54121;SDS011;40029;58.708;50.190;2023-12-22T12:22:18;5.35;;;3.35;;
54121;SDS011;40029;58.708;50.190;2023-12-22T12:24:51;9.00;;;4.93;;
54121;SDS011;40029;58.708;50.190;2023-12-22T12:27:24;11.60;;;6.57;;
54121;SDS011;40029;58.708;50.190;2023-12-22T12:29:56;8.70;;;4.95;;
54121;SDS011;40029;58.708;50.190;2023-12-22T12:32:27;5.28;;;3.17;;
54121;SDS011;40029;58.708;50.190;2023-12-22T12:34:59;6.75;;;3.90;;
54121;SDS011;40029;58.708;50.190;2023-12-22T12:37:31;5.95;;;4.07;;
54121;SDS011;40029;58.708;50.190;2023-12-22T12:40:02;5.18;;;2.90;;
54121;SDS011;40029;58.708;50.190;2023-12-22T12:42:36;3.75;;;2.25;;
54121;SDS011;40029;58.708;50.190;2023-12-22T12:45:08;5.05;;;2.85;;
54121;SDS011;40029;58.708;50.190;2023-12-22T12:47:40;15.80;;;8.68;;
54121;SDS011;40029;58.708;50.190;2023-12-22T12:50:11;23.73;;;12.40;;
54121;SDS011;40029;58.708;50.190;2023-12-22T12:52:42;21.65;;;9.82;;
54121;SDS011;40029;58.708;50.190;2023-12-22T12:55:14;6.32;;;4.70;;
54121;SDS011;40029;58.708;50.190;2023-12-22T12:57:46;10.00;;;3.95;;
54121;SDS011;40029;58.708;50.190;2023-12-22T13:00:26;6.38;;;3.65;;
54121;SDS011;40029;58.708;50.190;2023-12-22T13:03:02;6.07;;;2.85;;
54121;SDS011;40029;58.708;50.190;2023-12-22T13:05:37;5.78;;;3.50;;
54121;SDS011;40029;58.708;50.190;2023-12-22T13:08:11;6.43;;;4.43;;
54121;SDS011;40029;58.708;50.190;2023-12-22T13:10:43;6.22;;;4.10;;
54121;SDS011;40029;58.708;50.190;2023-12-22T13:13:14;5.22;;;3.88;;
54121;SDS011;40029;58.708;50.190;2023-12-22T13:15:46;10.05;;;4.57;;
54121;SDS011;40029;58.708;50.190;2023-12-22T13:18:18;12.07;;;4.82;;
54121;SDS011;40029;58.708;50.190;2023-12-22T13:20:49;10.70;;;5.70;;
54121;SDS011;40029;58.708;50.190;2023-12-22T13:23:21;9.43;;;6.10;;
54121;SDS011;40029;58.708;50.190;2023-12-22T13:25:52;8.20;;;4.75;;
54121;SDS011;40029;58.708;50.190;2023-12-22T13:28:27;7.47;;;5.40;;
54121;SDS011;40029;58.708;50.190;2023-12-22T13:30:59;10.82;;;6.55;;
54121;SDS011;40029;58.708;50.190;2023-12-22T13:33:33;6.38;;;4.53;;
54121;SDS011;40029;58.708;50.190;2023-12-22T13:36:05;7.95;;;4.07;;
54121;SDS011;40029;58.708;50.190;2023-12-22T13:38:37;4.30;;;2.38;;
54121;SDS011;40029;58.708;50.190;2023-12-22T13:41:08;4.45;;;2.97;;
54121;SDS011;40029;58.708;50.190;2023-12-22T13:43:39;3.88;;;2.58;;
54121;SDS011;40029;58.708;50.190;2023-12-22T13:46:12;4.32;;;3.33;;
54121;SDS011;40029;58.708;50.190;2023-12-22T13:48:45;3.60;;;2.63;;
54121;SDS011;40029;58.708;50.190;2023-12-22T13:51:16;10.23;;;4.75;;
54121;SDS011;40029;58.708;50.190;2023-12-22T13:53:49;9.13;;;5.18;;
54121;SDS011;40029;58.708;50.190;2023-12-22T13:56:21;9.07;;;5.95;;
54121;SDS011;40029;58.708;50.190;2023-12-22T13:58:52;8.35;;;5.50;;
54121;SDS011;40029;58.708;50.190;2023-12-22T14:01:23;7.43;;;4.45;;
54121;SDS011;40029;58.708;50.190;2023-12-22T14:03:54;7.25;;;4.22;;
54121;SDS011;40029;58.708;50.190;2023-12-22T14:06:28;9.10;;;5.03;;
54121;SDS011;40029;58.708;50.190;2023-12-22T14:09:00;10.57;;;5.45;;
54121;SDS011;40029;58.708;50.190;2023-12-22T14:11:49;11.80;;;6.03;;
54121;SDS011;40029;58.708;50.190;2023-12-22T14:14:39;16.92;;;8.00;;
54121;SDS011;40029;58.708;50.190;2023-12-22T14:17:10;15.70;;;8.82;;
54121;SDS011;40029;58.708;50.190;2023-12-22T14:19:42;8.63;;;3.90;;
54121;SDS011;40029;58.708;50.190;2023-12-22T14:22:13;8.20;;;3.05;;
54121;SDS011;40029;58.708;50.190;2023-12-22T14:24:44;7.97;;;3.78;;
54121;SDS011;40029;58.708;50.190;2023-12-22T14:27:16;4.07;;;2.85;;
54121;SDS011;40029;58.708;50.190;2023-12-22T14:29:50;7.25;;;3.22;;
54121;SDS011;40029;58.708;50.190;2023-12-22T14:32:21;7.40;;;3.83;;
54121;SDS011;40029;58.708;50.190;2023-12-22T14:34:53;7.05;;;3.55;;
54121;SDS011;40029;58.708;50.190;2023-12-22T14:37:24;5.93;;;2.83;;
54121;SDS011;40029;58.708;50.190;2023-12-22T14:39:56;3.45;;;2.22;;
54121;SDS011;40029;58.708;50.190;2023-12-22T14:42:28;4.68;;;2.95;;
54121;SDS011;40029;58.708;50.190;2023-12-22T14:44:59;4.22;;;2.72;;
54121;SDS011;40029;58.708;50.190;2023-12-22T14:47:50;4.13;;;3.13;;
54121;SDS011;40029;58.708;50.190;2023-12-22T14:50:25;5.68;;;2.35;;
54121;SDS011;40029;58.708;50.190;2023-12-22T14:52:56;7.40;;;2.75;;
54121;SDS011;40029;58.708;50.190;2023-12-22T14:55:27;17.98;;;3.13;;
54121;SDS011;40029;58.708;50.190;2023-12-22T14:57:58;7.93;;;3.45;;
54121;SDS011;40029;58.708;50.190;2023-12-22T15:00:30;10.48;;;4.47;;
54121;SDS011;40029;58.708;50.190;2023-12-22T15:03:01;12.75;;;4.30;;
54121;SDS011;40029;58.708;50.190;2023-12-22T15:05:33;13.13;;;3.53;;
54121;SDS011;40029;58.708;50.190;2023-12-22T15:08:04;21.23;;;4.57;;
54121;SDS011;40029;58.708;50.190;2023-12-22T15:10:37;18.10;;;3.70;;
54121;SDS011;40029;58.708;50.190;2023-12-22T15:13:09;13.02;;;3.78;;
54121;SDS011;40029;58.708;50.190;2023-12-22T15:15:40;24.40;;;4.05;;